createdAt,value
2022-12-01T00:01:21.475Z,98589.63
2022-12-01T00:03:48.615Z,98596.56
2022-12-01T00:06:19.392Z,98603.47
2022-12-01T00:09:21.104Z,98613.88
2022-12-01T00:11:48.819Z,98625.97
2022-12-01T00:14:16.502Z,98623.97
2022-12-01T00:16:44.737Z,98625.91
2022-12-01T00:19:11.776Z,98616.41
2022-12-01T00:21:38.777Z,98627.56
2022-12-01T00:24:07.186Z,98617.25
2022-12-01T00:26:34.013Z,98619.91
2022-12-01T00:29:00.985Z,98624.91
2022-12-01T00:31:28.293Z,98626.03
2022-12-01T00:33:56.052Z,98617.31
2022-12-01T00:36:24.099Z,98623.25
2022-12-01T00:38:55.289Z,98622.41
2022-12-01T00:41:23.606Z,98624.28
2022-12-01T00:43:51.306Z,98620.59
2022-12-01T00:46:18.691Z,98627.66
2022-12-01T00:48:45.559Z,98627.56
2022-12-01T00:51:12.662Z,98616.53
2022-12-01T00:53:39.539Z,98613.25
2022-12-01T00:56:06.662Z,98608.91
2022-12-01T00:58:33.518Z,98607.94
2022-12-01T01:01:01.973Z,98601.91
2022-12-01T01:03:30.177Z,98600.31
2022-12-01T01:06:03.163Z,98595.19
2022-12-01T01:08:30.034Z,98591.94
2022-12-01T01:10:59.770Z,98594.59
2022-12-01T01:13:26.745Z,98597.78
2022-12-01T01:16:02.522Z,98592.75
2022-12-01T01:18:29.749Z,98592.97
2022-12-01T01:21:07.932Z,98597.28
2022-12-01T01:23:37.879Z,98610.09
2022-12-01T01:26:07.894Z,98605.75
2022-12-01T01:28:34.905Z,98597.16
2022-12-01T01:31:06.715Z,98594.63
2022-12-01T01:33:33.879Z,98594.63
2022-12-01T01:36:02.236Z,98593.41
2022-12-01T01:38:29.937Z,98590.91
2022-12-01T01:40:57.080Z,98596.25
2022-12-01T01:43:42.453Z,98591.28
2022-12-01T01:46:18.951Z,98596.63
2022-12-01T01:49:00.273Z,98591.47
2022-12-01T01:51:40.458Z,98595.81
2022-12-01T01:54:17.932Z,98593.28
2022-12-01T01:56:46.477Z,98589.16
2022-12-01T01:59:17.385Z,98589.03
2022-12-01T02:01:45.789Z,98590.91
2022-12-01T02:04:14.133Z,98589.09
2022-12-01T02:06:41.008Z,98582.97
2022-12-01T02:09:12.456Z,98571.78
2022-12-01T02:12:14.722Z,98570.34
2022-12-01T02:15:17.082Z,98564.34
2022-12-01T02:18:07.325Z,98569.72
2022-12-01T02:20:55.119Z,98565.34
2022-12-01T02:23:47.874Z,98572.16
2022-12-01T02:26:36.670Z,98560.28
2022-12-01T02:29:38.448Z,98557.66
2022-12-01T02:32:12.515Z,98554.91
2022-12-01T02:35:05.781Z,98558.34
2022-12-01T02:37:59.444Z,98558.53
2022-12-01T02:40:50.009Z,98542.28
2022-12-01T02:43:33.070Z,98551.78
2022-12-01T02:46:07.932Z,98547.59
2022-12-01T02:48:37.454Z,98550.22
2022-12-01T02:51:26.823Z,98549.44
2022-12-01T02:53:55.727Z,98546.78
2022-12-01T02:56:24.201Z,98547.97
2022-12-01T02:58:51.334Z,98552.38
2022-12-01T03:01:46.176Z,98550.38
2022-12-01T03:04:25.061Z,98543.53
2022-12-01T03:07:13.372Z,98546.09
2022-12-01T03:09:49.794Z,98547.91
2022-12-01T03:12:19.842Z,98540.97
2022-12-01T03:15:01.785Z,98538.53
2022-12-01T03:17:36.361Z,98548.63
2022-12-01T03:20:11.862Z,98537.56
2022-12-01T03:22:48.975Z,98535.81
2022-12-01T03:25:17.714Z,98533.38
2022-12-01T03:28:19.325Z,98537.63
2022-12-01T03:30:39.082Z,98537.56
2022-12-01T03:33:10.706Z,98545.88
2022-12-01T03:36:10.594Z,98539.19
2022-12-01T03:38:38.414Z,98542.16
2022-12-01T03:41:15.472Z,98542.03
2022-12-01T03:43:49.927Z,98539.50
2022-12-01T03:47:00.988Z,98543.19
2022-12-01T03:49:29.091Z,98545.56
2022-12-01T03:52:17.601Z,98554.16
2022-12-01T03:54:55.517Z,98548.03
2022-12-01T03:57:36.175Z,98553.97
2022-12-01T04:00:04.548Z,98566.81
2022-12-01T04:02:40.489Z,98556.47
2022-12-01T04:05:09.493Z,98550.28
2022-12-01T04:07:37.617Z,98559.72
2022-12-01T04:10:05.655Z,98553.50
2022-12-01T04:12:33.358Z,98551.88
2022-12-01T04:15:05.774Z,98554.69
2022-12-01T04:17:32.748Z,98548.63
2022-12-01T04:20:00.128Z,98553.84
2022-12-01T04:22:27.635Z,98556.47
2022-12-01T04:24:54.492Z,98549.78
2022-12-01T04:27:21.760Z,98562.81
2022-12-01T04:29:48.962Z,98556.63
2022-12-01T04:32:16.493Z,98559.84
2022-12-01T04:34:43.633Z,98543.56
2022-12-01T04:37:12.223Z,98544.34
2022-12-01T04:39:39.230Z,98538.34
2022-12-01T04:42:06.257Z,98550.41
2022-12-01T04:44:35.218Z,98546.94
2022-12-01T04:47:03.983Z,98542.66
2022-12-01T04:49:31.441Z,98534.91
2022-12-01T04:51:58.702Z,98538.41
2022-12-01T04:54:26.912Z,98537.50
2022-12-01T04:56:53.873Z,98533.31
2022-12-01T04:59:21.000Z,98534.13
2022-12-01T05:01:48.405Z,98537.63
2022-12-01T05:04:16.102Z,98525.47
2022-12-01T05:06:43.646Z,98526.47
2022-12-01T05:09:17.565Z,98525.69
2022-12-01T05:11:45.175Z,98526.41
2022-12-01T05:14:12.206Z,98526.47
2022-12-01T05:16:39.325Z,98528.22
2022-12-01T05:19:25.473Z,98534.13
2022-12-01T05:21:52.855Z,98528.97
2022-12-01T05:24:20.764Z,98523.25
2022-12-01T05:26:48.164Z,98522.47
2022-12-01T05:29:15.247Z,98518.16
2022-12-01T05:31:42.448Z,98526.59
2022-12-01T05:34:09.563Z,98520.72
2022-12-01T05:36:36.966Z,98529.13
2022-12-01T05:39:04.543Z,98534.28
2022-12-01T05:41:31.749Z,98530.00
2022-12-01T05:43:58.815Z,98526.66
2022-12-01T05:46:25.951Z,98532.66
2022-12-01T05:48:52.890Z,98536.16
2022-12-01T05:51:19.847Z,98540.28
2022-12-01T05:53:46.764Z,98532.31
2022-12-01T05:56:13.697Z,98540.97
2022-12-01T05:58:40.630Z,98543.53
2022-12-01T06:01:07.607Z,98538.22
2022-12-01T06:03:34.546Z,98545.75
2022-12-01T06:06:01.803Z,98545.84
2022-12-01T06:08:28.872Z,98547.50
2022-12-01T06:10:55.769Z,98539.75
2022-12-01T06:13:22.734Z,98544.09
2022-12-01T06:15:57.656Z,98540.59
2022-12-01T06:18:25.730Z,98544.09
2022-12-01T06:20:52.668Z,98538.09
2022-12-01T06:23:19.582Z,98542.34
2022-12-01T06:25:46.537Z,98540.44
2022-12-01T06:28:13.829Z,98530.97
2022-12-01T06:30:40.738Z,98533.56
2022-12-01T06:33:08.085Z,98526.56
2022-12-01T06:35:35.714Z,98527.50
2022-12-01T06:38:02.633Z,98529.00
2022-12-01T06:40:29.661Z,98517.81
2022-12-01T06:43:00.768Z,98520.31
2022-12-01T06:45:27.802Z,98521.91
2022-12-01T06:47:55.682Z,98511.66
2022-12-01T06:50:22.915Z,98514.16
2022-12-01T06:52:49.975Z,98504.59
2022-12-01T06:55:16.867Z,98503.63
2022-12-01T06:57:43.840Z,98509.91
2022-12-01T07:00:13.531Z,98509.63
2022-12-01T07:02:41.169Z,98516.63
2022-12-01T07:05:08.430Z,98525.13
2022-12-01T07:07:37.394Z,98526.13
2022-12-01T07:10:04.775Z,98524.44
2022-12-01T07:12:32.012Z,98525.31
2022-12-01T07:14:58.960Z,98524.50
2022-12-01T07:17:25.967Z,98533.78
2022-12-01T07:19:52.867Z,98538.97
2022-12-01T07:22:20.003Z,98532.97
2022-12-01T07:24:47.239Z,98527.88
2022-12-01T07:27:14.228Z,98525.31
2022-12-01T07:29:41.148Z,98528.75
2022-12-01T07:32:08.115Z,98534.69
2022-12-01T07:34:35.147Z,98526.13
2022-12-01T07:37:01.994Z,98520.88
2022-12-01T07:39:28.944Z,98524.94
2022-12-01T07:41:55.840Z,98527.53
2022-12-01T07:44:22.884Z,98524.81
2022-12-01T07:46:49.793Z,98516.19
2022-12-01T07:49:16.713Z,98511.75
2022-12-01T07:51:43.559Z,98517.91
2022-12-01T07:54:14.309Z,98520.22
2022-12-01T07:56:41.525Z,98514.19
2022-12-01T07:59:08.958Z,98507.28
2022-12-01T08:01:38.283Z,98510.69
2022-12-01T08:04:07.289Z,98497.84
2022-12-01T08:06:34.381Z,98500.56
2022-12-01T08:09:01.294Z,98503.84
2022-12-01T08:11:32.133Z,98510.63
2022-12-01T08:13:59.106Z,98508.75
2022-12-01T08:16:26.107Z,98495.66
2022-12-01T08:18:53.745Z,98503.44
2022-12-01T08:21:22.462Z,98508.47
2022-12-01T08:23:53.423Z,98502.38
2022-12-01T08:26:21.435Z,98503.16
2022-12-01T08:28:48.489Z,98508.31
2022-12-01T08:31:30.545Z,98500.56
2022-12-01T08:33:58.212Z,98508.31
2022-12-01T08:36:25.923Z,98503.84
2022-12-01T08:38:54.689Z,98513.44
2022-12-01T08:41:21.935Z,98498.75
2022-12-01T08:43:58.066Z,98491.84
2022-12-01T08:46:33.233Z,98495.09
2022-12-01T08:49:00.486Z,98505.25
2022-12-01T08:51:27.614Z,98498.13
2022-12-01T08:53:57.108Z,98498.03
2022-12-01T08:56:29.019Z,98492.81
2022-12-01T08:58:56.453Z,98494.50
2022-12-01T09:01:25.798Z,98482.31
2022-12-01T09:04:11.117Z,98484.22
2022-12-01T09:06:41.177Z,98480.34
2022-12-01T09:09:12.669Z,98492.31
2022-12-01T09:11:40.647Z,98489.78
2022-12-01T09:14:07.591Z,98480.91
2022-12-01T09:16:34.613Z,98469.81
2022-12-01T09:19:02.094Z,98478.31
2022-12-01T09:21:31.214Z,98481.59
2022-12-01T09:23:59.337Z,98478.41
2022-12-01T09:26:27.068Z,98489.66
2022-12-01T09:28:59.391Z,98485.25
2022-12-01T09:31:26.963Z,98491.53
2022-12-01T09:34:00.255Z,98477.97
2022-12-01T09:36:28.515Z,98483.66
2022-12-01T09:38:58.477Z,98474.13
2022-12-01T09:41:36.991Z,98469.88
2022-12-01T09:44:23.685Z,98458.75
2022-12-01T10:18:51.821Z,98418.66
2022-12-01T10:21:21.306Z,98423.53
2022-12-01T10:24:15.600Z,98421.41
2022-12-01T10:27:08.558Z,98424.78
2022-12-01T10:29:47.951Z,98422.34
2022-12-01T10:32:20.151Z,98417.06
2022-12-01T10:34:48.169Z,98417.84
2022-12-01T10:37:25.218Z,98417.84
2022-12-01T10:39:54.757Z,98410.94
2022-12-01T10:42:42.318Z,98406.38
2022-12-01T10:45:27.555Z,98412.47
2022-12-01T10:48:15.911Z,98401.34
2022-12-01T10:50:44.012Z,98403.63
2022-12-01T10:53:33.719Z,98399.38
2022-12-01T10:56:19.750Z,98401.81
2022-12-01T10:58:58.037Z,98393.44
2022-12-01T11:01:32.198Z,98383.94
2022-12-01T11:04:45.763Z,98382.09
2022-12-01T11:07:35.294Z,98389.25
2022-12-01T11:10:23.347Z,98392.63
2022-12-01T11:13:16.021Z,98390.03
2022-12-01T11:15:52.901Z,98408.06
2022-12-01T11:18:28.441Z,98393.28
2022-12-01T11:21:25.398Z,98412.38
2022-12-01T11:23:54.398Z,98401.97
2022-12-01T11:26:26.282Z,98418.31
2022-12-01T11:29:02.049Z,98407.03
2022-12-01T11:31:45.850Z,98391.53
2022-12-01T11:34:22.171Z,98393.28
2022-12-01T11:36:53.437Z,98396.66
2022-12-01T11:39:26.004Z,98400.81
2022-12-01T11:41:58.672Z,98390.47
2022-12-01T11:44:50.460Z,98395.50
2022-12-01T11:47:24.442Z,98406.81
2022-12-01T11:50:07.027Z,98409.03
2022-12-01T11:52:45.051Z,98403.81
2022-12-01T11:55:11.920Z,98408.19
2022-12-01T11:57:44.639Z,98401.22
2022-12-01T12:00:17.926Z,98403.63
2022-12-01T12:03:09.889Z,98402.72
2022-12-01T12:05:45.923Z,98406.09
2022-12-01T12:08:35.367Z,98398.16
2022-12-01T12:11:19.174Z,98413.22
2022-12-01T12:13:52.170Z,98406.59
2022-12-01T12:16:39.151Z,98407.13
2022-12-01T12:19:18.369Z,98403.41
2022-12-01T12:22:07.658Z,98413.00
2022-12-01T12:24:55.778Z,98405.16
2022-12-01T12:27:28.242Z,98416.22
2022-12-01T12:30:24.434Z,98412.53
2022-12-01T12:33:22.494Z,98407.06
2022-12-01T12:36:14.980Z,98411.66
2022-12-01T12:39:18.212Z,98414.16
2022-12-01T12:41:56.147Z,98408.44
2022-12-01T12:45:11.227Z,98405.78
2022-12-01T12:48:01.007Z,98394.66
2022-12-01T12:50:43.116Z,98401.66
2022-12-01T12:53:18.127Z,98397.25
2022-12-01T12:55:49.901Z,98390.47
2022-12-01T12:58:34.350Z,98381.56
2022-12-01T13:01:07.122Z,98383.84
2022-12-01T13:03:52.050Z,98377.44
2022-12-01T13:06:28.051Z,98386.44
2022-12-01T13:09:08.126Z,98378.69
2022-12-01T13:11:58.025Z,98383.25
2022-12-01T13:14:31.976Z,98377.97
2022-12-01T13:17:06.905Z,98381.44
2022-12-01T13:19:40.502Z,98385.75
2022-12-01T13:22:08.958Z,98395.25
2022-12-01T13:24:36.229Z,98385.00
2022-12-01T13:27:07.643Z,98384.91
2022-12-01T13:29:43.680Z,98385.22
2022-12-01T13:32:25.981Z,98372.38
2022-12-01T13:34:53.349Z,98379.19
2022-12-01T13:37:28.411Z,98382.09
2022-12-01T13:39:56.723Z,98363.25
2022-12-01T13:42:25.943Z,98379.44
2022-12-01T13:44:55.896Z,98375.94
2022-12-01T13:47:47.686Z,98373.66
2022-12-01T13:50:36.147Z,98375.25
2022-12-01T13:53:20.404Z,98379.72
2022-12-01T13:56:16.476Z,98373.66
2022-12-01T13:58:53.548Z,98373.06
2022-12-01T14:01:20.972Z,98380.81
2022-12-01T14:03:57.344Z,98388.09
2022-12-01T14:06:36.072Z,98395.72
2022-12-01T14:09:27.441Z,98396.84
2022-12-01T14:12:06.571Z,98397.06
2022-12-01T14:14:43.893Z,98404.13
2022-12-01T14:17:34.232Z,98397.16
2022-12-01T14:20:08.782Z,98405.94
2022-12-01T14:22:43.931Z,98396.44
2022-12-01T14:25:20.077Z,98391.56
2022-12-01T14:27:50.968Z,98400.38
2022-12-01T14:30:39.134Z,98396.31
2022-12-01T14:33:43.400Z,98398.69
2022-12-01T14:36:18.331Z,98403.13
2022-12-01T14:38:46.312Z,98406.75
2022-12-01T14:41:22.897Z,98399.13
2022-12-01T14:44:04.329Z,98406.13
2022-12-01T14:46:46.018Z,98397.44
2022-12-01T14:49:22.661Z,98395.16
2022-12-01T14:51:52.863Z,98395.16
2022-12-01T14:54:44.071Z,98392.72
2022-12-01T14:57:16.921Z,98393.63
2022-12-01T14:59:44.907Z,98390.19
2022-12-01T15:02:13.974Z,98375.53
2022-12-01T15:05:06.555Z,98373.09
2022-12-01T15:07:38.990Z,98356.97
2022-12-01T15:10:07.013Z,98351.88
2022-12-01T15:12:33.955Z,98346.84
2022-12-01T15:15:00.885Z,98356.50
2022-12-01T15:17:37.140Z,98361.72
2022-12-01T15:20:25.044Z,98368.00
2022-12-01T15:22:53.155Z,98374.16
2022-12-01T15:25:20.162Z,98387.16
2022-12-01T15:28:02.295Z,98387.75
2022-12-01T15:30:30.175Z,98383.47
2022-12-01T15:32:58.365Z,98380.28
2022-12-01T15:35:25.705Z,98384.34
2022-12-01T15:37:53.579Z,98382.47
2022-12-01T15:41:06.291Z,98384.28
2022-12-01T15:43:22.238Z,98374.84
2022-12-01T15:45:55.967Z,98377.66
2022-12-01T15:48:41.752Z,98386.88
2022-12-01T15:51:16.274Z,98388.63
2022-12-01T15:53:55.467Z,98379.69
2022-12-01T15:56:38.308Z,98381.56
2022-12-01T15:59:24.441Z,98386.84
2022-12-01T16:01:51.462Z,98388.81
2022-12-01T16:04:32.452Z,98393.91
2022-12-01T16:07:06.962Z,98382.53
2022-12-01T16:09:37.697Z,98385.91
2022-12-01T16:12:16.328Z,98393.72
2022-12-01T16:15:14.422Z,98390.44
2022-12-01T16:17:53.089Z,98399.84
2022-12-01T16:20:35.658Z,98403.19
2022-12-01T16:23:18.930Z,98380.72
2022-12-01T16:25:48.044Z,98383.03
2022-12-01T16:28:24.909Z,98381.28
2022-12-01T16:30:52.849Z,98389.88
2022-12-01T16:33:24.269Z,98393.22
2022-12-01T16:35:51.977Z,98384.56
2022-12-01T16:38:22.599Z,98390.59
2022-12-01T16:40:52.258Z,98393.84
2022-12-01T16:43:22.358Z,98389.75
2022-12-01T16:45:53.013Z,98381.84
2022-12-01T16:48:20.562Z,98384.50
2022-12-01T16:50:52.257Z,98386.09
2022-12-01T16:53:20.855Z,98388.56
2022-12-01T16:55:56.352Z,98390.34
2022-12-01T16:58:23.393Z,98386.44
2022-12-01T17:00:53.524Z,98384.56
2022-12-01T17:03:25.120Z,98388.06
2022-12-01T17:05:53.041Z,98387.16
2022-12-01T17:08:20.865Z,98387.97
2022-12-01T17:10:50.380Z,98387.16
2022-12-01T17:13:19.034Z,98392.94
2022-12-01T17:15:49.074Z,98389.44
2022-12-01T17:18:18.346Z,98394.41
2022-12-01T17:20:55.809Z,98395.31
2022-12-01T17:23:22.653Z,98395.31
2022-12-01T17:25:49.889Z,98392.72
2022-12-01T17:28:17.869Z,98394.25
2022-12-01T17:30:45.393Z,98401.25
2022-12-01T17:33:12.655Z,98405.41
2022-12-01T17:35:40.028Z,98393.28
2022-12-01T17:38:07.548Z,98404.44
2022-12-01T17:40:34.762Z,98410.47
2022-12-01T17:43:01.980Z,98406.03
2022-12-01T17:45:28.994Z,98405.84
2022-12-01T17:47:56.015Z,98407.50
2022-12-01T17:50:24.760Z,98399.00
2022-12-01T17:52:51.898Z,98406.66
2022-12-01T17:55:19.737Z,98404.91
2022-12-01T17:57:46.770Z,98409.19
2022-12-01T18:00:14.424Z,98409.19
2022-12-01T18:02:41.396Z,98411.78
2022-12-01T18:05:08.841Z,98409.13
2022-12-01T18:07:35.931Z,98409.78
2022-12-01T18:10:02.940Z,98418.34
2022-12-01T18:12:29.823Z,98416.50
2022-12-01T18:14:56.846Z,98408.91
2022-12-01T18:17:23.931Z,98415.75
2022-12-01T18:19:50.817Z,98406.25
2022-12-01T18:22:17.796Z,98420.00
2022-12-01T18:24:44.649Z,98415.66
2022-12-01T18:27:11.548Z,98410.41
2022-12-01T18:29:38.493Z,98424.13
2022-12-01T18:32:05.426Z,98424.88
2022-12-01T18:34:32.496Z,98415.59
2022-12-01T18:37:02.162Z,98417.13
2022-12-01T18:39:29.489Z,98419.09
2022-12-01T18:41:56.365Z,98421.47
2022-12-01T18:44:23.692Z,98418.97
2022-12-01T18:46:50.976Z,98424.97
2022-12-01T18:49:18.095Z,98429.22
2022-12-01T18:51:45.085Z,98430.19
2022-12-01T18:54:13.883Z,98428.47
2022-12-01T18:56:40.980Z,98422.38
2022-12-01T18:59:10.250Z,98424.81
2022-12-01T19:01:40.358Z,98423.97
2022-12-01T19:04:09.136Z,98429.97
2022-12-01T19:06:38.361Z,98427.47
2022-12-01T19:09:08.162Z,98432.84
2022-12-01T19:11:35.307Z,98436.28
2022-12-01T19:14:03.820Z,98425.00
2022-12-01T19:16:31.253Z,98427.59
2022-12-01T19:18:58.674Z,98434.47
2022-12-01T19:21:26.164Z,98432.03
2022-12-01T19:23:53.938Z,98429.59
2022-12-01T19:26:22.364Z,98434.19
2022-12-01T19:28:50.349Z,98423.00
2022-12-01T19:31:22.952Z,98418.53
2022-12-01T19:33:50.971Z,98420.97
2022-12-01T19:36:20.453Z,98421.88
2022-12-01T19:38:48.091Z,98422.03
2022-12-01T19:41:16.211Z,98423.00
2022-12-01T19:43:43.464Z,98411.28
2022-12-01T19:46:13.717Z,98422.63
2022-12-01T19:48:41.205Z,98410.59
2022-12-01T19:51:15.325Z,98414.16
2022-12-01T19:53:42.293Z,98414.88
2022-12-01T19:56:09.747Z,98429.47
2022-12-01T19:58:36.810Z,98414.03
2022-12-01T20:01:11.323Z,98410.47
2022-12-01T20:03:39.203Z,98417.28
2022-12-01T20:06:09.204Z,98410.38
2022-12-01T20:08:37.061Z,98409.47
2022-12-01T20:11:05.100Z,98406.00
2022-12-01T20:13:38.371Z,98416.38
2022-12-01T20:16:10.763Z,98422.66
2022-12-01T20:18:38.756Z,98416.63
2022-12-01T20:21:17.247Z,98413.88
2022-12-01T20:23:49.490Z,98414.91
2022-12-01T20:26:18.576Z,98415.19
2022-12-01T20:28:48.363Z,98407.31
2022-12-01T20:31:22.972Z,98417.75
2022-12-01T20:33:51.425Z,98423.59
2022-12-01T20:36:18.543Z,98424.63
2022-12-01T20:38:46.328Z,98425.34
2022-12-01T20:41:13.795Z,98427.22
2022-12-01T20:43:41.242Z,98430.28
2022-12-01T20:46:08.498Z,98429.75
2022-12-01T20:48:35.613Z,98435.75
2022-12-01T20:51:04.566Z,98443.44
2022-12-01T20:53:32.341Z,98435.88
2022-12-01T20:56:06.508Z,98441.84
2022-12-01T20:58:37.487Z,98436.38
2022-12-01T21:01:14.885Z,98452.81
2022-12-01T21:03:43.900Z,98442.47
2022-12-01T21:06:12.745Z,98435.75
2022-12-01T21:08:41.371Z,98433.09
2022-12-01T21:11:19.240Z,98442.38
2022-12-01T21:13:47.066Z,98442.22
2022-12-01T21:16:19.103Z,98455.16
2022-12-01T21:19:06.537Z,98449.03
2022-12-01T21:21:40.288Z,98444.81
2022-12-01T21:24:22.191Z,98453.19
2022-12-01T21:27:12.848Z,98457.53
2022-12-01T21:29:43.706Z,98464.59
2022-12-01T21:32:27.263Z,98471.44
2022-12-01T21:35:00.407Z,98463.69
2022-12-01T21:37:28.611Z,98458.31
2022-12-01T21:39:57.056Z,98459.28
2022-12-01T21:42:27.254Z,98460.94
2022-12-01T21:44:56.131Z,98460.13
2022-12-01T21:47:25.856Z,98466.06
2022-12-01T21:49:56.271Z,98468.91
2022-12-01T21:52:30.093Z,98466.19
2022-12-01T21:55:09.270Z,98452.38
2022-12-01T21:57:45.350Z,98455.84
2022-12-01T22:00:35.101Z,98458.66
2022-12-01T22:03:08.024Z,98463.81
2022-12-01T22:05:40.931Z,98462.97
2022-12-01T22:08:15.540Z,98460.59
2022-12-01T22:10:58.962Z,98463.19
2022-12-01T22:14:04.379Z,98457.06
2022-12-01T22:16:33.524Z,98452.72
2022-12-01T22:19:10.414Z,98454.47
2022-12-01T22:21:45.442Z,98457.59
2022-12-01T22:24:45.705Z,98457.81
2022-12-01T22:27:36.972Z,98451.72
2022-12-01T22:30:07.380Z,98461.44
2022-12-01T22:32:38.453Z,98453.56
2022-12-01T22:35:28.005Z,98449.97
2022-12-01T22:38:12.984Z,98455.97
2022-12-01T22:40:57.348Z,98451.69
2022-12-01T22:43:27.726Z,98450.41
2022-12-01T22:46:17.609Z,98455.56
2022-12-01T22:48:55.218Z,98449.66
2022-12-01T22:51:30.019Z,98452.28
2022-12-01T22:54:01.640Z,98450.69
2022-12-01T22:56:41.624Z,98443.41
2022-12-01T22:59:14.589Z,98443.69
2022-12-01T23:01:56.007Z,98445.66
2022-12-01T23:04:23.002Z,98440.44
2022-12-01T23:06:55.840Z,98441.25
2022-12-01T23:09:26.447Z,98437.69
2022-12-01T23:11:59.824Z,98439.44
2022-12-01T23:14:27.646Z,98423.84
2022-12-01T23:17:06.957Z,98427.28
2022-12-01T23:19:34.778Z,98428.06
2022-12-01T23:22:02.185Z,98422.81
2022-12-01T23:24:33.699Z,98413.28
2022-12-01T23:27:01.539Z,98417.50
2022-12-01T23:29:30.208Z,98421.59
2022-12-01T23:31:57.147Z,98429.44
2022-12-01T23:34:24.021Z,98428.72
2022-12-01T23:36:51.145Z,98432.03
2022-12-01T23:39:19.123Z,98432.03
2022-12-01T23:41:48.898Z,98435.66
2022-12-01T23:44:42.736Z,98433.00
2022-12-01T23:47:19.884Z,98437.41
2022-12-01T23:49:48.405Z,98426.38
2022-12-01T23:52:20.196Z,98433.06
2022-12-01T23:54:47.483Z,98433.06
2022-12-01T23:57:23.814Z,98436.47
2022-12-01T23:59:55.274Z,98435.94
